RYR76GA LFBH-EGSS
Flight info
| Callsign | RYR76GA |
|---|---|
| Flight time | 1h 7m |
| Altitude | 18000 |
| Route | LUSON A25 TIRAV/N0423F320 UT501 USODA UM184 DIKRO UM185 ADLOG/N0362F240 M185 TELTU |
| Aircraft | B38M/M-SADE3FGILRWY/SB1 |
Departure
| Time | 2026-05-04 11:46 |
|---|---|
| Airport | La Rochelle Île de Ré Airport (LFBH) |
Arrival
| Time | 2026-05-04 12:53 |
|---|---|
| Airport | London Stansted Airport (EGSS) |
| Time | Latitude | Longitude | Altitude | Speed | Heading |
|---|---|---|---|---|---|
| 2026-05-04 11:20 | 46.17652 | -1.19288 | 79 ft | 0 kts | 316° |
| 2026-05-04 11:40 | 46.17653 | -1.19289 | 79 ft | 1 kts | 316° |
| 2026-05-04 11:41 | 46.17682 | -1.19332 | 78 ft | 8 kts | 298° |
| 2026-05-04 11:41 | 46.17690 | -1.19421 | 79 ft | 10 kts | 272° |
| 2026-05-04 11:41 | 46.17706 | -1.19486 | 80 ft | 4 kts | 324° |
| 2026-05-04 11:41 | 46.17738 | -1.19497 | 80 ft | 6 kts | 354° |
| 2026-05-04 11:42 | 46.17789 | -1.19498 | 83 ft | 9 kts | 3° |
| 2026-05-04 11:42 | 46.17861 | -1.19493 | 84 ft | 12 kts | 358° |
| 2026-05-04 11:42 | 46.17916 | -1.19550 | 79 ft | 9 kts | 286° |
| 2026-05-04 11:42 | 46.17923 | -1.19653 | 79 ft | 12 kts | 272° |
| 2026-05-04 11:43 | 46.17927 | -1.19787 | 85 ft | 15 kts | 272° |
| 2026-05-04 11:43 | 46.17932 | -1.19942 | 84 ft | 17 kts | 272° |
| 2026-05-04 11:43 | 46.17937 | -1.20130 | 79 ft | 21 kts | 272° |
| 2026-05-04 11:43 | 46.17945 | -1.20387 | 71 ft | 31 kts | 272° |
| 2026-05-04 11:44 | 46.17954 | -1.20729 | 77 ft | 27 kts | 270° |
| 2026-05-04 11:44 | 46.17930 | -1.20903 | 82 ft | 5 kts | 257° |
| 2026-05-04 11:44 | 46.17935 | -1.20926 | 79 ft | 3 kts | 309° |
| 2026-05-04 11:44 | 46.17957 | -1.20938 | 79 ft | 1 kts | 7° |
| 2026-05-04 11:45 | 46.17971 | -1.20914 | 84 ft | 6 kts | 68° |
| 2026-05-04 11:45 | 46.17948 | -1.20518 | 77 ft | 88 kts | 91° |
| 2026-05-04 11:45 | 46.17908 | -1.19224 | 112 ft | 170 kts | 89° |
| 2026-05-04 11:45 | 46.17855 | -1.17270 | 670 ft | 214 kts | 90° |
| 2026-05-04 11:46 | 46.17800 | -1.15083 | 2234 ft | 218 kts | 91° |
| 2026-05-04 11:46 | 46.17792 | -1.12877 | 3949 ft | 222 kts | 86° |
| 2026-05-04 11:46 | 46.18188 | -1.10626 | 5030 ft | 243 kts | 60° |
| 2026-05-04 11:46 | 46.19468 | -1.09050 | 6198 ft | 250 kts | 20° |
| 2026-05-04 11:47 | 46.21244 | -1.09030 | 7177 ft | 270 kts | 344° |
| 2026-05-04 11:47 | 46.22895 | -1.10432 | 8310 ft | 281 kts | 317° |
| 2026-05-04 11:47 | 46.24029 | -1.12672 | 9846 ft | 278 kts | 298° |
| 2026-05-04 11:47 | 46.24697 | -1.15288 | 10799 ft | 282 kts | 278° |
| 2026-05-04 11:48 | 46.24898 | -1.18151 | 11532 ft | 293 kts | 273° |
| 2026-05-04 11:48 | 46.25067 | -1.21213 | 11854 ft | 322 kts | 272° |
| 2026-05-04 11:48 | 46.25277 | -1.24575 | 12393 ft | 341 kts | 280° |
| 2026-05-04 11:48 | 46.25906 | -1.27833 | 13674 ft | 341 kts | 288° |
| 2026-05-04 11:49 | 46.27171 | -1.30788 | 14488 ft | 353 kts | 315° |
| 2026-05-04 11:49 | 46.29262 | -1.32576 | 15328 ft | 360 kts | 343° |
| 2026-05-04 11:49 | 46.31801 | -1.32874 | 16137 ft | 366 kts | 7° |
| 2026-05-04 11:49 | 46.34305 | -1.32287 | 16897 ft | 373 kts | 5° |
| 2026-05-04 11:50 | 46.36907 | -1.32481 | 17807 ft | 373 kts | 348° |
| 2026-05-04 11:50 | 46.39417 | -1.33257 | 18904 ft | 367 kts | 348° |
| 2026-05-04 11:50 | 46.41944 | -1.33945 | 19585 ft | 374 kts | 348° |
| 2026-05-04 11:50 | 46.44512 | -1.34663 | 20238 ft | 379 kts | 348° |
| 2026-05-04 11:51 | 46.47119 | -1.35406 | 20930 ft | 383 kts | 348° |
| 2026-05-04 11:51 | 46.49727 | -1.36153 | 21572 ft | 388 kts | 348° |
| 2026-05-04 11:51 | 46.52395 | -1.36921 | 22268 ft | 393 kts | 348° |
| 2026-05-04 11:51 | 46.55102 | -1.37701 | 22899 ft | 398 kts | 348° |
| 2026-05-04 11:52 | 46.57839 | -1.38491 | 23546 ft | 403 kts | 348° |
| 2026-05-04 11:52 | 46.60630 | -1.39029 | 24065 ft | 407 kts | 1° |
| 2026-05-04 11:52 | 46.63475 | -1.38814 | 24664 ft | 410 kts | 2° |
| 2026-05-04 11:52 | 46.66337 | -1.38630 | 25152 ft | 415 kts | 2° |
| 2026-05-04 11:53 | 46.69236 | -1.38437 | 25699 ft | 418 kts | 2° |
| 2026-05-04 11:53 | 46.72165 | -1.38237 | 26209 ft | 421 kts | 2° |
| 2026-05-04 11:53 | 46.75044 | -1.38039 | 26727 ft | 425 kts | 2° |
| 2026-05-04 11:53 | 46.78014 | -1.37834 | 27246 ft | 428 kts | 2° |
| 2026-05-04 11:55 | 46.99361 | -1.36724 | 30416 ft | 448 kts | 354° |
| 2026-05-04 11:55 | 47.02463 | -1.36978 | 30829 ft | 450 kts | 355° |
| 2026-05-04 11:56 | 47.05621 | -1.37197 | 31215 ft | 453 kts | 356° |
| 2026-05-04 11:56 | 47.08773 | -1.37395 | 31607 ft | 456 kts | 356° |
| 2026-05-04 11:56 | 47.11962 | -1.37590 | 32027 ft | 458 kts | 356° |
| 2026-05-04 11:56 | 47.15166 | -1.37783 | 32386 ft | 461 kts | 356° |
| 2026-05-04 11:57 | 47.18386 | -1.37978 | 32752 ft | 463 kts | 356° |
| 2026-05-04 11:57 | 47.21580 | -1.38172 | 33111 ft | 466 kts | 356° |
| 2026-05-04 11:57 | 47.24819 | -1.38367 | 33459 ft | 468 kts | 356° |
| 2026-05-04 11:57 | 47.28083 | -1.38565 | 33794 ft | 471 kts | 356° |
| 2026-05-04 11:58 | 47.31366 | -1.38764 | 34107 ft | 473 kts | 356° |
| 2026-05-04 11:58 | 47.34658 | -1.38965 | 34383 ft | 476 kts | 356° |
| 2026-05-04 11:58 | 47.37985 | -1.39167 | 34684 ft | 477 kts | 356° |
| 2026-05-04 11:58 | 47.41316 | -1.39370 | 35069 ft | 477 kts | 356° |
| 2026-05-04 11:59 | 47.44591 | -1.39570 | 35470 ft | 476 kts | 356° |
| 2026-05-04 11:59 | 47.47898 | -1.39772 | 35855 ft | 475 kts | 356° |
| 2026-05-04 11:59 | 47.51189 | -1.39973 | 36225 ft | 474 kts | 356° |
| 2026-05-04 11:59 | 47.54482 | -1.40174 | 36590 ft | 474 kts | 356° |
| 2026-05-04 12:00 | 47.57721 | -1.40373 | 36955 ft | 473 kts | 356° |
| 2026-05-04 12:00 | 47.60985 | -1.40573 | 37327 ft | 472 kts | 356° |
| 2026-05-04 12:00 | 47.64236 | -1.40773 | 37694 ft | 471 kts | 356° |
| 2026-05-04 12:00 | 47.67519 | -1.40975 | 37976 ft | 472 kts | 356° |
| 2026-05-04 12:01 | 47.70800 | -1.41188 | 37982 ft | 471 kts | 356° |
| 2026-05-04 12:02 | 47.93580 | -1.42896 | 37980 ft | 468 kts | 356° |
| 2026-05-04 12:03 | 48.00083 | -1.43384 | 37986 ft | 468 kts | 356° |
| 2026-05-04 12:03 | 48.06545 | -1.43849 | 37993 ft | 467 kts | 356° |
| 2026-05-04 12:04 | 48.13036 | -1.44315 | 37990 ft | 466 kts | 356° |
| 2026-05-04 12:04 | 48.19528 | -1.44781 | 37980 ft | 466 kts | 356° |
| 2026-05-04 12:05 | 48.26004 | -1.45247 | 37984 ft | 466 kts | 356° |
| 2026-05-04 12:05 | 48.32473 | -1.45714 | 37980 ft | 466 kts | 356° |
| 2026-05-04 12:06 | 48.38919 | -1.46181 | 37986 ft | 466 kts | 356° |
| 2026-05-04 12:06 | 48.45395 | -1.46651 | 37986 ft | 465 kts | 356° |
| 2026-05-04 12:07 | 48.51840 | -1.47120 | 37981 ft | 464 kts | 356° |
| 2026-05-04 12:07 | 48.58304 | -1.47591 | 37982 ft | 465 kts | 356° |
| 2026-05-04 12:08 | 48.64739 | -1.48062 | 37998 ft | 465 kts | 356° |
| 2026-05-04 12:08 | 48.71200 | -1.48536 | 37987 ft | 464 kts | 356° |
| 2026-05-04 12:09 | 48.77645 | -1.49009 | 37998 ft | 464 kts | 356° |
| 2026-05-04 12:09 | 48.84063 | -1.49482 | 37993 ft | 464 kts | 356° |
| 2026-05-04 12:10 | 48.90498 | -1.49266 | 37967 ft | 463 kts | 14° |
| 2026-05-04 12:10 | 48.96620 | -1.46102 | 37955 ft | 466 kts | 19° |
| 2026-05-04 12:11 | 49.02661 | -1.42789 | 38011 ft | 466 kts | 20° |
| 2026-05-04 12:11 | 49.08754 | -1.39371 | 38005 ft | 465 kts | 20° |
| 2026-05-04 12:12 | 49.14833 | -1.35946 | 38001 ft | 464 kts | 20° |
| 2026-05-04 12:12 | 49.20894 | -1.32521 | 37980 ft | 464 kts | 20° |
| 2026-05-04 12:14 | 49.45128 | -1.18736 | 38016 ft | 464 kts | 20° |
| 2026-05-04 12:15 | 49.51041 | -1.15351 | 38016 ft | 464 kts | 20° |
| 2026-05-04 12:15 | 49.57052 | -1.11874 | 38017 ft | 463 kts | 24° |
| 2026-05-04 12:16 | 49.59813 | -1.09381 | 38013 ft | 460 kts | 39° |
| 2026-05-04 12:16 | 49.62354 | -1.06360 | 38001 ft | 463 kts | 37° |
| 2026-05-04 12:16 | 49.67498 | -1.00382 | 38029 ft | 463 kts | 38° |
| 2026-05-04 12:17 | 49.70019 | -0.97401 | 37883 ft | 452 kts | 38° |
| 2026-05-04 12:17 | 49.72505 | -0.94448 | 37469 ft | 446 kts | 38° |
| 2026-05-04 12:17 | 49.75077 | -0.91941 | 37013 ft | 442 kts | 23° |
| 2026-05-04 12:17 | 49.78010 | -0.90613 | 36577 ft | 437 kts | 8° |
| 2026-05-04 12:18 | 49.81026 | -0.90064 | 36039 ft | 435 kts | 6° |
| 2026-05-04 12:18 | 49.83998 | -0.89564 | 35570 ft | 433 kts | 6° |
| 2026-05-04 12:18 | 49.87019 | -0.89093 | 34842 ft | 438 kts | 5° |
| 2026-05-04 12:18 | 49.90084 | -0.88640 | 34011 ft | 445 kts | 5° |
| 2026-05-04 12:19 | 49.93178 | -0.88196 | 33031 ft | 453 kts | 5° |
| 2026-05-04 12:19 | 49.96351 | -0.87745 | 32069 ft | 460 kts | 5° |
| 2026-05-04 12:19 | 49.99546 | -0.87291 | 31316 ft | 462 kts | 5° |
| 2026-05-04 12:19 | 50.02742 | -0.86836 | 30836 ft | 457 kts | 5° |
| 2026-05-04 12:20 | 50.05880 | -0.86389 | 30504 ft | 449 kts | 4° |
| 2026-05-04 12:20 | 50.08973 | -0.85948 | 30110 ft | 443 kts | 4° |
| 2026-05-04 12:20 | 50.12044 | -0.85509 | 29536 ft | 441 kts | 4° |
| 2026-05-04 12:20 | 50.15087 | -0.85074 | 29044 ft | 436 kts | 4° |
| 2026-05-04 12:21 | 50.18083 | -0.84645 | 28595 ft | 432 kts | 4° |
| 2026-05-04 12:21 | 50.21020 | -0.84225 | 28147 ft | 427 kts | 4° |
| 2026-05-04 12:21 | 50.23967 | -0.83802 | 27704 ft | 423 kts | 4° |
| 2026-05-04 12:21 | 50.26893 | -0.83381 | 27259 ft | 419 kts | 4° |
| 2026-05-04 12:22 | 50.29786 | -0.82966 | 26813 ft | 416 kts | 4° |
| 2026-05-04 12:22 | 50.32663 | -0.82551 | 26365 ft | 413 kts | 4° |
| 2026-05-04 12:22 | 50.35520 | -0.82139 | 25905 ft | 411 kts | 4° |
| 2026-05-04 12:22 | 50.37395 | -0.81868 | 25645 ft | 408 kts | 4° |
| 2026-05-04 12:23 | 50.40209 | -0.81461 | 25229 ft | 405 kts | 4° |
| 2026-05-04 12:23 | 50.43921 | -0.80924 | 24668 ft | 402 kts | 4° |
| 2026-05-04 12:23 | 50.45797 | -0.80652 | 24376 ft | 400 kts | 3° |
| 2026-05-04 12:23 | 50.48529 | -0.80255 | 23968 ft | 398 kts | 3° |
| 2026-05-04 12:24 | 50.51292 | -0.79854 | 23541 ft | 396 kts | 3° |
| 2026-05-04 12:24 | 50.54038 | -0.79454 | 23052 ft | 394 kts | 4° |
| 2026-05-04 12:24 | 50.56762 | -0.79056 | 22623 ft | 391 kts | 4° |
| 2026-05-04 12:24 | 50.59442 | -0.78665 | 22221 ft | 387 kts | 4° |
| 2026-05-04 12:25 | 50.62125 | -0.78274 | 21792 ft | 384 kts | 4° |
| 2026-05-04 12:25 | 50.64780 | -0.77886 | 21334 ft | 382 kts | 4° |
| 2026-05-04 12:25 | 50.67386 | -0.77505 | 20951 ft | 369 kts | 4° |
| 2026-05-04 12:25 | 50.69899 | -0.77137 | 20590 ft | 356 kts | 4° |
| 2026-05-04 12:26 | 50.72295 | -0.76785 | 20227 ft | 344 kts | 5° |
| 2026-05-04 12:26 | 50.74631 | -0.76443 | 19878 ft | 333 kts | 5° |
| 2026-05-04 12:26 | 50.76939 | -0.76104 | 19530 ft | 331 kts | 5° |
| 2026-05-04 12:26 | 50.79233 | -0.75766 | 19175 ft | 330 kts | 5° |
| 2026-05-04 12:27 | 50.81481 | -0.75213 | 18941 ft | 325 kts | 19° |
| 2026-05-04 12:27 | 50.83572 | -0.73893 | 18789 ft | 324 kts | 23° |
| 2026-05-04 12:27 | 50.85673 | -0.72550 | 18612 ft | 324 kts | 23° |
| 2026-05-04 12:27 | 50.87735 | -0.71227 | 18448 ft | 323 kts | 23° |
| 2026-05-04 12:28 | 50.89826 | -0.69882 | 18266 ft | 322 kts | 23° |
| 2026-05-04 12:28 | 50.91884 | -0.68557 | 18086 ft | 321 kts | 23° |
| 2026-05-04 12:28 | 50.93947 | -0.67225 | 17898 ft | 320 kts | 23° |
| 2026-05-04 12:28 | 50.96012 | -0.65892 | 17734 ft | 319 kts | 23° |
| 2026-05-04 12:29 | 50.98063 | -0.64566 | 17552 ft | 318 kts | 23° |
| 2026-05-04 12:29 | 51.00106 | -0.63243 | 17405 ft | 317 kts | 23° |
| 2026-05-04 12:29 | 51.02151 | -0.61918 | 17237 ft | 316 kts | 23° |
| 2026-05-04 12:29 | 51.04168 | -0.60610 | 17075 ft | 316 kts | 23° |
| 2026-05-04 12:30 | 51.06224 | -0.59276 | 16912 ft | 315 kts | 23° |
| 2026-05-04 12:30 | 51.08170 | -0.58011 | 16748 ft | 314 kts | 23° |
| 2026-05-04 12:30 | 51.10180 | -0.56703 | 16596 ft | 313 kts | 23° |
| 2026-05-04 12:30 | 51.12193 | -0.55393 | 16425 ft | 312 kts | 22° |
| 2026-05-04 12:31 | 51.14190 | -0.54092 | 16257 ft | 311 kts | 22° |
| 2026-05-04 12:31 | 51.16190 | -0.52787 | 16092 ft | 310 kts | 22° |
| 2026-05-04 12:31 | 51.18193 | -0.51480 | 15933 ft | 310 kts | 22° |
| 2026-05-04 12:31 | 51.20185 | -0.50179 | 15758 ft | 309 kts | 22° |
| 2026-05-04 12:32 | 51.22150 | -0.48894 | 15606 ft | 308 kts | 22° |
| 2026-05-04 12:32 | 51.26111 | -0.46299 | 15288 ft | 306 kts | 22° |
| 2026-05-04 12:32 | 51.28073 | -0.45012 | 15126 ft | 306 kts | 22° |
| 2026-05-04 12:33 | 51.30048 | -0.43715 | 14966 ft | 305 kts | 22° |
| 2026-05-04 12:33 | 51.32013 | -0.42424 | 14805 ft | 304 kts | 22° |
| 2026-05-04 12:33 | 51.33940 | -0.41157 | 14668 ft | 303 kts | 22° |
| 2026-05-04 12:33 | 51.35889 | -0.39874 | 14514 ft | 303 kts | 22° |
| 2026-05-04 12:34 | 51.37826 | -0.38598 | 14332 ft | 301 kts | 22° |
| 2026-05-04 12:34 | 51.39764 | -0.37320 | 14166 ft | 300 kts | 22° |
| 2026-05-04 12:34 | 51.41694 | -0.36047 | 14010 ft | 300 kts | 22° |
| 2026-05-04 12:34 | 51.43610 | -0.34745 | 13857 ft | 299 kts | 25° |
| 2026-05-04 12:35 | 51.45483 | -0.33298 | 13667 ft | 299 kts | 25° |
| 2026-05-04 12:35 | 51.47353 | -0.31858 | 13503 ft | 297 kts | 25° |
| 2026-05-04 12:35 | 51.49232 | -0.30420 | 13353 ft | 297 kts | 25° |
| 2026-05-04 12:35 | 51.51094 | -0.28996 | 13202 ft | 296 kts | 25° |
| 2026-05-04 12:36 | 51.52957 | -0.27574 | 13055 ft | 296 kts | 25° |
| 2026-05-04 12:36 | 51.54794 | -0.26170 | 12894 ft | 295 kts | 25° |
| 2026-05-04 12:36 | 51.56651 | -0.24750 | 12733 ft | 294 kts | 25° |
| 2026-05-04 12:36 | 51.58496 | -0.23340 | 12569 ft | 293 kts | 25° |
| 2026-05-04 12:37 | 51.60330 | -0.21935 | 12473 ft | 293 kts | 25° |
| 2026-05-04 12:37 | 51.62176 | -0.20519 | 12327 ft | 292 kts | 25° |
| 2026-05-04 12:37 | 51.64012 | -0.19111 | 12172 ft | 291 kts | 25° |
| 2026-05-04 12:37 | 51.65839 | -0.17709 | 12021 ft | 291 kts | 25° |
| 2026-05-04 12:38 | 51.67636 | -0.16327 | 11880 ft | 290 kts | 25° |
| 2026-05-04 12:38 | 51.69455 | -0.14927 | 11727 ft | 289 kts | 25° |
| 2026-05-04 12:38 | 51.71272 | -0.13529 | 11552 ft | 288 kts | 25° |
| 2026-05-04 12:38 | 51.73087 | -0.12131 | 11411 ft | 288 kts | 25° |
| 2026-05-04 12:39 | 51.74894 | -0.10751 | 11261 ft | 287 kts | 23° |
| 2026-05-04 12:39 | 51.76735 | -0.09470 | 11109 ft | 286 kts | 22° |
| 2026-05-04 12:39 | 51.78563 | -0.08198 | 10926 ft | 286 kts | 22° |
| 2026-05-04 12:39 | 51.80386 | -0.06922 | 10766 ft | 285 kts | 22° |
| 2026-05-04 12:40 | 51.82203 | -0.05646 | 10635 ft | 284 kts | 22° |
| 2026-05-04 12:40 | 51.83980 | -0.04397 | 10481 ft | 283 kts | 22° |
| 2026-05-04 12:40 | 51.85778 | -0.03132 | 10332 ft | 282 kts | 22° |
| 2026-05-04 12:40 | 51.87581 | -0.01862 | 10172 ft | 281 kts | 22° |
| 2026-05-04 12:41 | 51.89370 | -0.00601 | 10029 ft | 280 kts | 22° |
| 2026-05-04 12:41 | 51.91154 | 0.00657 | 9867 ft | 279 kts | 22° |
| 2026-05-04 12:41 | 51.92936 | 0.01917 | 9712 ft | 278 kts | 22° |
| 2026-05-04 12:41 | 51.94680 | 0.03151 | 9564 ft | 274 kts | 22° |
| 2026-05-04 12:42 | 51.96404 | 0.04371 | 9415 ft | 266 kts | 22° |
| 2026-05-04 12:42 | 51.98048 | 0.05661 | 9262 ft | 259 kts | 34° |
| 2026-05-04 12:42 | 51.99235 | 0.07818 | 9093 ft | 258 kts | 64° |
| 2026-05-04 12:42 | 51.99634 | 0.10607 | 8966 ft | 255 kts | 94° |
| 2026-05-04 12:43 | 51.99155 | 0.13332 | 8888 ft | 251 kts | 123° |
| 2026-05-04 12:43 | 51.98052 | 0.15513 | 8891 ft | 251 kts | 135° |
| 2026-05-04 12:43 | 51.96788 | 0.17479 | 8889 ft | 251 kts | 147° |
| 2026-05-04 12:43 | 51.95206 | 0.18461 | 8871 ft | 245 kts | 176° |
| 2026-05-04 12:44 | 51.93549 | 0.18065 | 8725 ft | 243 kts | 205° |
| 2026-05-04 12:44 | 51.92165 | 0.16476 | 8374 ft | 246 kts | 224° |
| 2026-05-04 12:44 | 51.90941 | 0.14488 | 7980 ft | 249 kts | 226° |
| 2026-05-04 12:44 | 51.89754 | 0.12514 | 7902 ft | 239 kts | 226° |
| 2026-05-04 12:45 | 51.88605 | 0.10608 | 7905 ft | 240 kts | 226° |
| 2026-05-04 12:45 | 51.87449 | 0.08692 | 7867 ft | 242 kts | 226° |
| 2026-05-04 12:45 | 51.86283 | 0.06754 | 7344 ft | 253 kts | 226° |
| 2026-05-04 12:45 | 51.85043 | 0.04684 | 6715 ft | 259 kts | 226° |
| 2026-05-04 12:46 | 51.83784 | 0.02572 | 6083 ft | 262 kts | 226° |
| 2026-05-04 12:46 | 51.82515 | 0.00441 | 5433 ft | 265 kts | 226° |
| 2026-05-04 12:46 | 51.81056 | -0.01363 | 4801 ft | 266 kts | 206° |
| 2026-05-04 12:46 | 51.79333 | -0.02541 | 4054 ft | 270 kts | 201° |
| 2026-05-04 12:47 | 51.77567 | -0.03642 | 3295 ft | 275 kts | 201° |
| 2026-05-04 12:47 | 51.75779 | -0.04756 | 2677 ft | 273 kts | 199° |
| 2026-05-04 12:47 | 51.73991 | -0.05150 | 2635 ft | 249 kts | 173° |
| 2026-05-04 12:47 | 51.72434 | -0.04276 | 2601 ft | 230 kts | 143° |
| 2026-05-04 12:48 | 51.71389 | -0.02401 | 2510 ft | 225 kts | 114° |
| 2026-05-04 12:48 | 51.71073 | -0.00013 | 2489 ft | 222 kts | 85° |
| 2026-05-04 12:48 | 51.71554 | 0.02361 | 2454 ft | 223 kts | 55° |
| 2026-05-04 12:48 | 51.72674 | 0.03987 | 2476 ft | 221 kts | 27° |
| 2026-05-04 12:49 | 51.74102 | 0.04927 | 2523 ft | 223 kts | 20° |
| 2026-05-04 12:49 | 51.75549 | 0.05843 | 2515 ft | 223 kts | 24° |
| 2026-05-04 12:49 | 51.76917 | 0.06936 | 2480 ft | 211 kts | 29° |
| 2026-05-04 12:49 | 51.78129 | 0.08157 | 2479 ft | 202 kts | 35° |
| 2026-05-04 12:50 | 51.79230 | 0.09584 | 2484 ft | 203 kts | 41° |
| 2026-05-04 12:50 | 51.80275 | 0.11129 | 2369 ft | 202 kts | 43° |
| 2026-05-04 12:50 | 51.81255 | 0.12611 | 2144 ft | 184 kts | 42° |
| 2026-05-04 12:50 | 51.82165 | 0.13974 | 1927 ft | 172 kts | 42° |
| 2026-05-04 12:51 | 51.82990 | 0.15210 | 1741 ft | 151 kts | 41° |
| 2026-05-04 12:51 | 51.83720 | 0.16304 | 1512 ft | 136 kts | 41° |
| 2026-05-04 12:51 | 51.84401 | 0.17326 | 1332 ft | 132 kts | 41° |
| 2026-05-04 12:51 | 51.85078 | 0.18342 | 1138 ft | 132 kts | 41° |
| 2026-05-04 12:52 | 51.85754 | 0.19355 | 952 ft | 132 kts | 41° |
| 2026-05-04 12:52 | 51.86430 | 0.20354 | 732 ft | 131 kts | 41° |
| 2026-05-04 12:52 | 51.87096 | 0.21357 | 543 ft | 130 kts | 41° |
| 2026-05-04 12:52 | 51.87740 | 0.22336 | 388 ft | 130 kts | 40° |
| 2026-05-04 12:53 | 51.88368 | 0.23257 | 338 ft | 109 kts | 43° |
| 2026-05-04 12:53 | 51.88739 | 0.23838 | 349 ft | 45 kts | 45° |
| 2026-05-04 12:53 | 51.88868 | 0.24171 | 352 ft | 36 kts | 71° |
| 2026-05-04 12:53 | 51.88909 | 0.24385 | 351 ft | 0 kts | 73° |
| 2026-05-04 12:54 | 51.88909 | 0.24386 | 351 ft | 0 kts | 73° |
| 2026-05-04 12:55 | 51.88918 | 0.24435 | 350 ft | 9 kts | 76° |
| 2026-05-04 12:55 | 51.88916 | 0.24485 | 360 ft | 0 kts | 120° |
| 2026-05-04 12:56 | 51.89028 | 0.25700 | 362 ft | 0 kts | 42° |